Etusivu
METAR-TAF:

METAR-TAF

Lentoasemat :

Öljynporauslautta

Goeree Le, Alankomaat

Leveyspiiri: 51-55-33N, Pituuspiiri: 3-40-12E, korkeus merenpinnasta: 19 m

Tämänhetkinen sää

Tämä raportti tehtiin 34 minuuttia sitten, kello 01.25 UTC
Tuuli 17 kn luoteesta
Lämpötila 8°C
Kosteus 53%
Ilmanpaine 1025 hPa
Näkyvyys 10 km tai enemmän

METAR: EHSC 110125Z AUTO 32017KT 9999 ///////// 08/M01 Q1025 W09/H22

Aika: 02:59 (01:59 UTC)


TAF: puuttuu

Säähavainnot ja -ennusteet yli 4000 lentoasemalta (METAR- ja TAF-raportit).

Käytössä olevat sääasemat on merkitty karttaan keltaisilla ja punaisilla pisteillä.

Aseta hiiri pisteen päälle nähdäksesi sääaseman nimen.

Klikkaa sitten nähdäksesi säähavainnot ja -ennusteet.

Kartan vaihtaminen: klikkaa mustalla rastilla varustettuja vihreitä pisteitä, niin voit zoomata sisään; viivalla varustettua vihreää pistettä, niin voit zoomata ulos tai vihreitä nuolia, niin pääset viereisille kartoille.


METAR-TAF: